Terminal Aerodrome Forecast
Issued by NWS Goodland, KS

Home | Current Version | Previous Version | Text Only | Print | Product List | Glossary On
Versions: 1 2 3 4 5 6 7 8 9 10 11 12
313
FTUS43 KGLD 201744
TAFGLD
TAF
KGLD 201744Z 2018/2118 VRB05KT P6SM FEW150 BKN300
     FM210300 19009KT P6SM FEW050 SCT250
     FM211600 19012KT P6SM SCT070 BKN200=

USA.gov is the U.S. government's official web portal to all federal, state and local government web resources and services.